Time;durP1;ratioP1;P1;durP2;ratioP2;P2;SDS_P1;SDS_P2;PMS_P1;PMS_P2;Temp;Humidity;BMP_temperature;BMP_pressure;BME280_temperature;BME280_humidity;BME280_pressure;Samples;Min_cycle;Max_cycle;Signal;HPM_P1;HPM_P2
2022/08/01 00:01:05;;;;;;;2.75;2.53;;;24.40;65.60;;;;;;5014688;28;20180;-70
2022/08/01 00:03:31;;;;;;;2.78;2.58;;;24.40;65.60;;;;;;5031389;28;20271;-70
2022/08/01 00:05:57;;;;;;;2.50;2.30;;;24.40;65.60;;;;;;5030498;28;20188;-70
2022/08/01 00:08:23;;;;;;;3.10;2.50;;;24.40;65.60;;;;;;5030834;28;20263;-69
2022/08/01 00:10:49;;;;;;;2.40;2.20;;;24.40;65.60;;;;;;5014492;28;20317;-70
2022/08/01 00:13:14;;;;;;;2.65;2.45;;;24.40;65.60;;;;;;5031042;28;20188;-70
2022/08/01 00:15:40;;;;;;;2.40;2.22;;;24.40;65.60;;;;;;4997609;28;20188;-70
2022/08/01 00:18:06;;;;;;;2.63;2.42;;;24.40;65.60;;;;;;5030677;28;20310;-71
2022/08/01 00:20:32;;;;;;;2.30;2.10;;;24.40;65.60;;;;;;5014306;28;20184;-70
2022/08/01 00:22:57;;;;;;;1.90;1.80;;;24.40;65.60;;;;;;4993257;28;20193;-70
2022/08/01 00:25:23;;;;;;;2.42;2.22;;;24.40;65.60;;;;;;5008493;28;20192;-70
2022/08/01 00:27:49;;;;;;;2.53;2.33;;;24.40;65.60;;;;;;5030477;28;20302;-70
2022/08/01 00:30:15;;;;;;;2.42;2.22;;;24.40;65.60;;;;;;5030591;28;20188;-70
2022/08/01 00:32:44;;;;;;;2.20;2.10;;;24.40;66.40;;;;;;5014209;28;20195;-71
2022/08/01 00:35:10;;;;;;;2.15;2.05;;;24.40;65.70;;;;;;5030376;28;20271;-70
2022/08/01 00:37:36;;;;;;;2.53;2.33;;;24.40;66.40;;;;;;5029831;28;20214;-71
2022/08/01 00:40:02;;;;;;;2.10;2.00;;;24.40;65.60;;;;;;5013616;28;20298;-70
2022/08/01 00:42:28;;;;;;;2.65;2.45;;;24.40;65.60;;;;;;5030735;28;20188;-70
2022/08/01 00:44:54;;;;;;;2.50;2.30;;;24.40;65.60;;;;;;4997577;28;20184;-70
2022/08/01 00:47:19;;;;;;;2.15;2.05;;;24.40;65.60;;;;;;5029814;28;20234;-70
2022/08/01 00:49:45;;;;;;;2.55;2.35;;;24.40;66.40;;;;;;5013830;28;20323;-71
2022/08/01 00:52:11;;;;;;;2.30;2.20;;;24.30;65.50;;;;;;5028325;28;20195;-70
2022/08/01 00:54:38;;;;;;;2.42;2.30;;;24.40;65.60;;;;;;5018625;28;20223;-71
2022/08/01 00:57:04;;;;;;;2.00;1.90;;;24.30;65.50;;;;;;5009760;28;20213;-71
2022/08/01 00:59:30;;;;;;;2.55;2.35;;;24.40;66.40;;;;;;5010455;28;20216;-70
2022/08/01 01:01:56;;;;;;;2.10;2.00;;;24.40;65.60;;;;;;5010343;28;20188;-70
2022/08/01 01:04:22;;;;;;;2.20;2.00;;;24.40;66.40;;;;;;5010512;28;20196;-70
2022/08/01 01:06:54;;;;;;;2.38;2.20;;;24.30;65.50;;;;;;4993068;28;20209;-70
2022/08/01 01:09:40;;;;;;;2.65;2.38;;;24.40;65.70;;;;;;4977181;28;20181;-70
2022/08/01 01:12:20;;;;;;;2.25;2.05;;;24.30;65.50;;;;;;5010153;28;20188;-71
2022/08/01 01:15:06;;;;;;;2.47;2.28;;;24.30;65.50;;;;;;4977924;28;20616;-71
2022/08/01 01:17:46;;;;;;;2.42;2.22;;;24.30;65.50;;;;;;5009403;28;20311;-70
2022/08/01 01:20:15;;;;;;;2.22;2.03;;;24.30;65.50;;;;;;4993442;28;20648;-71
2022/08/01 01:22:47;;;;;;;2.50;2.30;;;24.30;65.50;;;;;;5017767;28;20239;-71
2022/08/01 01:25:45;;;;;;;2.40;2.20;;;24.30;65.50;;;;;;5006213;28;20570;-70
2022/08/01 01:28:41;;;;;;;2.42;2.22;;;24.30;65.50;;;;;;5014068;28;20206;-71
2022/08/01 01:31:11;;;;;;;2.20;2.10;;;24.30;65.50;;;;;;4990380;28;20651;-71
2022/08/01 01:33:40;;;;;;;2.20;2.10;;;24.30;66.30;;;;;;4990320;28;20192;-71
2022/08/01 01:36:09;;;;;;;2.33;2.15;;;24.30;65.50;;;;;;4989572;28;20182;-70
2022/08/01 01:38:43;;;;;;;2.22;2.03;;;24.30;66.30;;;;;;4989931;28;20260;-70
2022/08/01 01:41:17;;;;;;;2.10;2.00;;;24.30;65.50;;;;;;4990428;28;20178;-71
2022/08/01 01:43:47;;;;;;;2.10;1.95;;;24.30;65.50;;;;;;4973880;28;20217;-71
2022/08/01 01:46:22;;;;;;;2.35;2.20;;;24.30;65.50;;;;;;4989226;28;20279;-70
2022/08/01 01:48:50;;;;;;;2.63;2.00;;;24.30;65.50;;;;;;4990117;28;20350;-70
2022/08/01 01:51:18;;;;;;;1.83;1.73;;;24.30;65.50;;;;;;4990187;28;20193;-70
2022/08/01 01:53:45;;;;;;;2.20;2.05;;;24.30;65.50;;;;;;5016445;28;20196;-70
2022/08/01 01:56:15;;;;;;;2.22;2.13;;;24.30;65.50;;;;;;4976198;28;20181;-70
2022/08/01 01:58:43;;;;;;;2.00;1.90;;;24.30;65.50;;;;;;5009348;28;20267;-71
2022/08/01 02:01:11;;;;;;;2.33;2.13;;;24.30;65.50;;;;;;5009094;28;20193;-70
2022/08/01 02:03:41;;;;;;;2.53;2.33;;;24.30;65.50;;;;;;5008767;28;20300;-70
2022/08/01 02:06:07;;;;;;;2.05;1.88;;;24.20;65.40;;;;;;4975839;28;20208;-70
2022/08/01 02:08:35;;;;;;;1.98;1.88;;;24.30;65.50;;;;;;4992845;28;20185;-70
2022/08/01 02:11:18;;;;;;;1.90;1.80;;;24.30;65.50;;;;;;5008854;28;20189;-70
2022/08/01 02:13:52;;;;;;;1.85;1.70;;;24.30;65.50;;;;;;4976473;28;20212;-70
2022/08/01 02:16:22;;;;;;;2.22;2.03;;;24.30;65.50;;;;;;4976169;28;20209;-71
2022/08/01 02:18:48;;;;;;;2.20;2.00;;;24.20;65.40;;;;;;5008934;28;20204;-70
2022/08/01 02:21:27;;;;;;;2.05;1.95;;;24.30;65.50;;;;;;5008463;28;20645;-70
2022/08/01 02:24:00;;;;;;;2.15;1.70;;;24.20;65.40;;;;;;5016598;28;20176;-71
2022/08/01 02:26:27;;;;;;;3.20;2.05;;;24.30;65.50;;;;;;4991884;28;20209;-71
2022/08/01 02:29:02;;;;;;;2.22;2.08;;;24.30;65.50;;;;;;4976133;28;20189;-70
2022/08/01 02:31:35;;;;;;;2.00;1.90;;;24.20;65.40;;;;;;4992731;28;20188;-71
2022/08/01 02:34:06;;;;;;;2.22;2.13;;;24.20;65.40;;;;;;5008757;28;20192;-70
2022/08/01 02:36:38;;;;;;;2.22;2.03;;;24.20;65.40;;;;;;4975414;28;20676;-70
2022/08/01 02:39:11;;;;;;;1.85;1.75;;;24.30;65.50;;;;;;4992106;28;20205;-70
2022/08/01 02:41:46;;;;;;;2.10;2.00;;;24.20;65.40;;;;;;5005983;28;20188;-71
2022/08/01 02:44:30;;;;;;;2.00;1.90;;;24.20;65.50;;;;;;5008239;28;20190;-70
2022/08/01 02:47:04;;;;;;;2.28;2.08;;;24.20;65.40;;;;;;4975571;28;20214;-71
2022/08/01 02:49:45;;;;;;;2.15;2.05;;;24.20;65.40;;;;;;5006095;28;20243;-71
2022/08/01 02:52:15;;;;;;;2.00;1.90;;;24.20;66.20;;;;;;4975804;28;20193;-70
2022/08/01 02:54:45;;;;;;;2.35;2.15;;;24.20;65.40;;;;;;5008109;28;20191;-70
2022/08/01 02:57:14;;;;;;;2.10;2.00;;;24.20;65.40;;;;;;4975456;28;20209;-70
2022/08/01 02:59:42;;;;;;;1.90;1.80;;;24.20;65.40;;;;;;4991578;28;20225;-70
2022/08/01 03:02:10;;;;;;;2.25;2.15;;;24.20;65.40;;;;;;5008369;28;20185;-71
2022/08/01 03:04:40;;;;;;;2.17;2.08;;;24.20;65.40;;;;;;4992063;28;20299;-70
2022/08/01 03:07:10;;;;;;;2.00;1.83;;;24.20;65.40;;;;;;4991179;28;20292;-70
2022/08/01 03:09:40;;;;;;;1.90;1.80;;;24.20;65.40;;;;;;4991527;28;20216;-70
2022/08/01 03:12:15;;;;;;;2.30;2.08;;;24.20;65.40;;;;;;4991839;28;20185;-71
2022/08/01 03:14:46;;;;;;;2.08;1.92;;;24.20;65.40;;;;;;4992167;28;20275;-70
2022/08/01 03:17:13;;;;;;;2.08;1.98;;;24.20;65.40;;;;;;4991315;28;20223;-70
2022/08/01 03:19:42;;;;;;;1.70;1.60;;;24.20;65.40;;;;;;4991118;28;20226;-71
2022/08/01 03:22:12;;;;;;;2.15;2.03;;;24.20;65.40;;;;;;4995617;28;20180;-71
2022/08/01 03:24:41;;;;;;;2.03;1.92;;;24.20;65.40;;;;;;5019279;28;20180;-70
2022/08/01 03:27:08;;;;;;;2.05;1.95;;;24.20;65.40;;;;;;5027129;28;20212;-71
2022/08/01 03:29:36;;;;;;;2.28;2.13;;;24.20;66.20;;;;;;5027700;28;20246;-70
2022/08/01 03:32:03;;;;;;;1.98;1.88;;;24.20;65.40;;;;;;5027917;28;20198;-71
2022/08/01 03:34:30;;;;;;;1.90;1.80;;;24.20;65.40;;;;;;5013963;28;20275;-70
2022/08/01 03:37:11;;;;;;;1.90;1.80;;;24.20;65.40;;;;;;5030891;28;20216;-70
2022/08/01 03:39:46;;;;;;;1.77;1.67;;;24.10;65.30;;;;;;5030933;28;20270;-71
2022/08/01 03:42:18;;;;;;;1.70;1.60;;;24.10;65.30;;;;;;5015127;28;20271;-71
2022/08/01 03:44:54;;;;;;;2.10;2.00;;;24.10;65.30;;;;;;5031603;28;20172;-70
2022/08/01 03:47:29;;;;;;;1.83;1.73;;;24.20;65.40;;;;;;5030915;28;20203;-70
2022/08/01 03:49:57;;;;;;;1.98;1.88;;;24.10;65.30;;;;;;4998596;28;20188;-71
2022/08/01 03:52:27;;;;;;;1.90;1.80;;;24.10;65.30;;;;;;5029528;28;20187;-71
2022/08/01 03:54:58;;;;;;;2.70;1.95;;;24.20;65.40;;;;;;5006352;28;20286;-71
2022/08/01 03:57:28;;;;;;;2.03;1.92;;;24.10;65.30;;;;;;5014163;28;20207;-70
2022/08/01 03:59:56;;;;;;;2.00;1.90;;;24.10;65.30;;;;;;4998341;28;20215;-70
2022/08/01 04:02:23;;;;;;;1.80;1.70;;;24.20;65.40;;;;;;5014660;28;20184;-71
2022/08/01 04:04:49;;;;;;;1.92;1.83;;;24.20;65.40;;;;;;5014853;28;20270;-71
2022/08/01 04:07:27;;;;;;;2.05;1.95;;;24.10;65.30;;;;;;4997922;28;20200;-70
2022/08/01 04:09:53;;;;;;;1.88;1.77;;;24.10;65.30;;;;;;5030621;28;20270;-70
2022/08/01 04:12:20;;;;;;;2.08;1.98;;;24.10;65.30;;;;;;5031251;28;20274;-70
2022/08/01 04:14:46;;;;;;;1.98;1.88;;;24.10;66.10;;;;;;5030898;28;20188;-71
2022/08/01 04:17:13;;;;;;;1.85;1.75;;;24.10;65.30;;;;;;5013961;28;20211;-71
2022/08/01 04:19:39;;;;;;;2.00;1.90;;;24.10;65.30;;;;;;5014234;28;20740;-70
2022/08/01 04:22:06;;;;;;;2.33;2.13;;;24.10;65.30;;;;;;5012782;28;20184;-71
2022/08/01 04:24:35;;;;;;;1.98;1.80;;;24.10;65.30;;;;;;5006086;28;20196;-71
2022/08/01 04:27:05;;;;;;;1.92;1.83;;;24.10;65.30;;;;;;5030350;28;20204;-70
2022/08/01 04:29:32;;;;;;;1.73;1.63;;;24.10;65.30;;;;;;5030649;28;20220;-71
2022/08/01 04:32:01;;;;;;;2.17;2.08;;;24.10;65.30;;;;;;5030684;28;20180;-70
2022/08/01 04:34:31;;;;;;;1.85;1.75;;;24.10;65.30;;;;;;4997756;28;20274;-70
2022/08/01 04:37:00;;;;;;;2.08;1.80;;;24.10;65.30;;;;;;5013451;28;20204;-71
2022/08/01 04:39:30;;;;;;;2.03;1.90;;;24.10;65.30;;;;;;5013987;28;20200;-70
2022/08/01 04:42:01;;;;;;;1.80;1.70;;;24.10;65.30;;;;;;5030747;28;20172;-70
2022/08/01 04:44:32;;;;;;;1.83;1.73;;;24.10;65.30;;;;;;5030240;28;20246;-71
2022/08/01 04:47:02;;;;;;;1.98;1.88;;;24.10;65.30;;;;;;4996784;28;20295;-70
2022/08/01 04:49:33;;;;;;;1.92;1.83;;;24.10;65.30;;;;;;5013910;28;20176;-71
2022/08/01 04:52:00;;;;;;;1.75;1.65;;;24.10;65.30;;;;;;5027062;28;20627;-71
2022/08/01 04:54:33;;;;;;;1.92;1.83;;;24.10;65.30;;;;;;5018610;28;20199;-71
2022/08/01 04:57:00;;;;;;;2.22;1.50;;;24.10;65.30;;;;;;5009845;28;20244;-70
2022/08/01 04:59:40;;;;;;;1.95;1.83;;;24.10;65.30;;;;;;5010438;28;20251;-70
2022/08/01 05:02:28;;;;;;;2.10;2.00;;;24.10;65.30;;;;;;5010401;28;20187;-70
2022/08/01 05:04:57;;;;;;;2.00;1.90;;;24.10;66.10;;;;;;4994223;28;20208;-70
2022/08/01 05:07:23;;;;;;;2.08;1.98;;;24.10;66.10;;;;;;4993331;28;20300;-70
2022/08/01 05:09:50;;;;;;;1.83;1.73;;;24.10;65.30;;;;;;4977297;28;20277;-70
2022/08/01 05:12:16;;;;;;;2.13;2.03;;;24.10;65.30;;;;;;5010920;28;20557;-70
2022/08/01 05:14:42;;;;;;;1.90;1.80;;;24.10;65.30;;;;;;4977810;28;20199;-70
2022/08/01 05:17:09;;;;;;;1.95;1.85;;;24.10;65.30;;;;;;5009840;28;20290;-70
2022/08/01 05:19:36;;;;;;;1.90;1.80;;;24.10;65.30;;;;;;4977491;28;20252;-71
2022/08/01 05:22:07;;;;;;;2.10;2.00;;;24.10;65.30;;;;;;5013541;28;20188;-71
2022/08/01 05:24:36;;;;;;;1.73;1.63;;;24.10;65.30;;;;;;4981788;28;20300;-71
2022/08/01 05:27:03;;;;;;;1.90;1.80;;;24.10;65.40;;;;;;4993245;28;20200;-71
2022/08/01 05:29:30;;;;;;;1.80;1.70;;;24.10;65.30;;;;;;4993986;28;20196;-71
2022/08/01 05:31:57;;;;;;;1.75;1.50;;;24.10;65.30;;;;;;4993424;28;20195;-70
2022/08/01 05:34:23;;;;;;;1.80;1.70;;;24.10;65.40;;;;;;4993481;28;20185;-70
2022/08/01 05:36:49;;;;;;;1.75;1.60;;;24.10;65.30;;;;;;4992867;28;20783;-70
2022/08/01 05:39:15;;;;;;;1.83;1.73;;;24.10;65.30;;;;;;4977627;28;20291;-71
2022/08/01 05:41:41;;;;;;;1.77;1.67;;;24.10;65.30;;;;;;5009506;28;20220;-71
2022/08/01 05:44:07;;;;;;;2.45;2.17;;;24.10;65.40;;;;;;5009628;28;20185;-70
2022/08/01 05:46:34;;;;;;;1.95;1.65;;;24.10;65.40;;;;;;5009269;28;20209;-70
2022/08/01 05:49:02;;;;;;;1.83;1.73;;;24.10;65.40;;;;;;5009739;28;20242;-71
2022/08/01 05:51:29;;;;;;;2.00;1.90;;;24.10;65.40;;;;;;5009555;28;20204;-70
2022/08/01 05:53:55;;;;;;;2.03;1.92;;;24.10;65.40;;;;;;5019361;28;20279;-70
2022/08/01 05:56:22;;;;;;;1.80;1.70;;;24.10;65.40;;;;;;5028021;28;20231;-70
2022/08/01 05:58:50;;;;;;;2.03;1.83;;;24.10;65.50;;;;;;5028613;28;20671;-70
2022/08/01 06:01:18;;;;;;;2.03;1.83;;;24.10;65.60;;;;;;5029144;28;20199;-70
2022/08/01 06:03:44;;;;;;;2.05;1.95;;;24.10;65.70;;;;;;5029126;28;20208;-70
2022/08/01 06:06:10;;;;;;;4.03;2.05;;;24.10;66.00;;;;;;5028269;28;20180;-70
2022/08/01 06:08:36;;;;;;;2.15;1.98;;;24.10;66.10;;;;;;5029235;28;20258;-70
2022/08/01 06:11:02;;;;;;;2.10;1.90;;;24.10;66.20;;;;;;5008754;28;20192;-71
2022/08/01 06:13:28;;;;;;;1.98;1.88;;;24.10;66.40;;;;;;5009159;28;20192;-71
2022/08/01 06:15:54;;;;;;;3.22;1.98;;;24.20;66.40;;;;;;4991928;28;20266;-70
2022/08/01 06:18:20;;;;;;;2.55;1.90;;;24.10;66.50;;;;;;4992448;28;20221;-70
2022/08/01 06:20:46;;;;;;;2.17;1.95;;;24.10;66.70;;;;;;5002553;28;20189;-71
2022/08/01 06:23:13;;;;;;;3.88;2.20;;;24.10;66.80;;;;;;5009208;28;20241;-70
2022/08/01 06:25:39;;;;;;;3.67;2.10;;;24.10;66.90;;;;;;4977124;28;20181;-71
2022/08/01 06:28:05;;;;;;;2.85;2.05;;;24.10;67.00;;;;;;4986154;28;20240;-71
2022/08/01 06:30:31;;;;;;;3.38;2.00;;;24.10;67.00;;;;;;4992408;28;20184;-71
2022/08/01 06:32:58;;;;;;;1.83;1.70;;;24.10;67.10;;;;;;5000676;28;20193;-69
2022/08/01 06:35:24;;;;;;;3.97;2.10;;;24.10;67.00;;;;;;5012083;28;20182;-71
2022/08/01 06:37:50;;;;;;;2.25;2.03;;;24.10;67.00;;;;;;4977501;28;20305;-70
2022/08/01 06:40:16;;;;;;;2.60;2.00;;;24.10;67.00;;;;;;5011843;28;20307;-70
2022/08/01 06:42:42;;;;;;;2.58;2.13;;;24.10;67.80;;;;;;4992249;28;20189;-70
2022/08/01 06:45:10;;;;;;;3.42;2.08;;;24.10;67.10;;;;;;5024911;28;20304;-70
2022/08/01 06:47:37;;;;;;;2.90;1.90;;;24.20;67.30;;;;;;5024381;28;20259;-70
2022/08/01 06:50:06;;;;;;;2.78;1.98;;;24.10;67.00;;;;;;5018410;28;20176;-70
2022/08/01 06:52:32;;;;;;;1.83;1.70;;;24.10;67.20;;;;;;4994215;28;20188;-71
2022/08/01 06:54:59;;;;;;;4.85;2.25;;;24.10;67.50;;;;;;5015791;28;20193;-71
2022/08/01 06:57:25;;;;;;;2.78;2.20;;;24.20;68.10;;;;;;4987823;28;20269;-71
2022/08/01 06:59:52;;;;;;;3.05;2.13;;;24.20;68.40;;;;;;4988695;28;20220;-71
2022/08/01 07:02:22;;;;;;;4.45;2.10;;;24.10;67.70;;;;;;5008622;28;20188;-70
2022/08/01 07:04:48;;;;;;;3.38;2.50;;;24.20;68.80;;;;;;5004972;28;20562;-71
2022/08/01 07:07:14;;;;;;;2.40;2.20;;;24.20;68.70;;;;;;4972065;28;20200;-71
2022/08/01 07:09:42;;;;;;;2.33;2.10;;;24.10;68.30;;;;;;4971774;28;20661;-71
2022/08/01 07:12:09;;;;;;;2.20;2.00;;;24.10;68.30;;;;;;4977872;28;20201;-70
2022/08/01 07:14:35;;;;;;;2.25;2.05;;;24.00;67.60;;;;;;4988416;28;20276;-70
2022/08/01 07:17:00;;;;;;;2.15;2.00;;;24.00;67.60;;;;;;5009994;28;20301;-71
2022/08/01 07:19:26;;;;;;;3.05;1.98;;;23.90;67.60;;;;;;4991797;28;20213;-71
2022/08/01 07:21:53;;;;;;;2.33;2.13;;;23.90;68.10;;;;;;4993728;28;20203;-71
2022/08/01 07:24:18;;;;;;;2.67;2.20;;;24.00;68.00;;;;;;5005170;28;20566;-71
2022/08/01 07:26:47;;;;;;;3.13;2.10;;;24.10;68.00;;;;;;4979940;28;20276;-70
2022/08/01 07:29:13;;;;;;;2.38;1.88;;;24.10;68.00;;;;;;4972139;28;20793;-71
2022/08/01 07:31:39;;;;;;;2.50;2.30;;;24.10;67.30;;;;;;4990307;28;20279;-70
2022/08/01 07:34:05;;;;;;;3.08;2.50;;;23.90;67.70;;;;;;5012801;28;20173;-71
2022/08/01 07:36:31;;;;;;;2.35;2.15;;;24.00;67.70;;;;;;5017208;28;20625;-70
2022/08/01 07:38:57;;;;;;;2.70;2.50;;;24.00;67.60;;;;;;5001818;28;20629;-71
2022/08/01 07:41:23;;;;;;;2.60;2.40;;;24.00;67.70;;;;;;4988351;28;20185;-71
2022/08/01 07:43:49;;;;;;;2.65;2.45;;;24.10;67.70;;;;;;4992009;28;20185;-70
2022/08/01 07:46:15;;;;;;;2.50;2.30;;;24.10;67.70;;;;;;5006999;28;20286;-70
2022/08/01 07:48:42;;;;;;;2.58;2.13;;;24.20;67.80;;;;;;5007670;28;20193;-70
2022/08/01 07:51:11;;;;;;;2.08;1.98;;;24.30;67.90;;;;;;5007866;28;20193;-70
2022/08/01 07:53:38;;;;;;;2.47;2.28;;;24.30;68.00;;;;;;5008629;28;20713;-70
2022/08/01 07:56:07;;;;;;;2.40;2.20;;;24.40;68.10;;;;;;4974678;28;20189;-69
2022/08/01 07:58:34;;;;;;;4.18;2.35;;;24.40;68.10;;;;;;4991413;28;20221;-72
2022/08/01 08:01:00;;;;;;;4.03;2.50;;;24.40;68.10;;;;;;5007658;28;20184;-70
2022/08/01 08:03:26;;;;;;;2.83;2.50;;;24.40;68.00;;;;;;4975431;28;20188;-70
2022/08/01 08:05:52;;;;;;;3.13;2.58;;;24.40;68.00;;;;;;4975544;28;20261;-70
2022/08/01 08:08:18;;;;;;;2.42;2.22;;;24.40;68.00;;;;;;5007019;28;20209;-70
2022/08/01 08:10:44;;;;;;;2.63;2.40;;;24.50;68.20;;;;;;5007469;28;20545;-70
2022/08/01 08:13:10;;;;;;;4.75;2.78;;;24.50;68.20;;;;;;5007841;28;20224;-70
2022/08/01 08:15:36;;;;;;;2.70;2.50;;;24.50;68.10;;;;;;4998605;28;20228;-71
2022/08/01 08:18:04;;;;;;;2.58;2.38;;;24.50;68.10;;;;;;4994181;28;20212;-70
2022/08/01 08:20:30;;;;;;;4.10;2.47;;;24.50;68.10;;;;;;5011672;28;20713;-70
2022/08/01 08:22:58;;;;;;;10.43;2.63;;;24.50;68.20;;;;;;4998321;28;20206;-70
2022/08/01 08:25:25;;;;;;;3.88;2.45;;;24.50;68.20;;;;;;5030734;28;20180;-70
2022/08/01 08:27:52;;;;;;;2.53;2.40;;;24.50;68.20;;;;;;5030167;28;20222;-70
2022/08/01 08:30:18;;;;;;;2.88;2.60;;;24.50;68.30;;;;;;5013607;28;20195;-70
2022/08/01 08:32:44;;;;;;;2.72;2.45;;;24.50;68.30;;;;;;5030740;28;20186;-70
2022/08/01 08:35:11;;;;;;;2.70;2.25;;;24.60;68.30;;;;;;5030372;28;20196;-70
2022/08/01 08:37:38;;;;;;;2.78;2.58;;;24.60;68.40;;;;;;4996908;28;20212;-71
2022/08/01 08:40:05;;;;;;;3.72;2.67;;;24.60;68.40;;;;;;5014026;28;20691;-70
2022/08/01 08:42:31;;;;;;;2.80;2.58;;;24.60;68.30;;;;;;5030723;28;20180;-70
2022/08/01 08:44:57;;;;;;;2.60;2.38;;;24.60;68.30;;;;;;4992189;28;20560;-71
2022/08/01 08:47:25;;;;;;;3.22;2.42;;;24.60;68.40;;;;;;4998551;28;20204;-70
2022/08/01 08:49:55;;;;;;;2.40;2.22;;;24.60;68.50;;;;;;5010992;28;20648;-70
2022/08/01 08:52:22;;;;;;;4.10;2.30;;;24.60;68.50;;;;;;5010744;28;20192;-70
2022/08/01 08:54:51;;;;;;;2.75;2.47;;;24.60;68.50;;;;;;5011016;28;20192;-71
2022/08/01 08:57:20;;;;;;;3.85;2.80;;;24.60;68.60;;;;;;5009829;28;20279;-71
2022/08/01 08:59:47;;;;;;;3.38;2.40;;;24.60;68.60;;;;;;4977992;28;20235;-70
2022/08/01 09:02:15;;;;;;;2.78;2.58;;;24.60;68.80;;;;;;5007590;28;20185;-72
2022/08/01 09:04:50;;;;;;;4.07;2.47;;;24.50;67.70;;;;;;5008878;28;20284;-71
2022/08/01 09:07:25;;;;;;;3.10;2.50;;;24.50;68.00;;;;;;5021335;28;20199;-71
2022/08/01 09:09:51;;;;;;;2.40;2.20;;;24.50;68.40;;;;;;5030217;28;20258;-71
2022/08/01 09:12:19;;;;;;;3.17;2.80;;;24.60;68.40;;;;;;5030600;28;20291;-71
2022/08/01 09:14:50;;;;;;;2.58;2.38;;;24.60;68.50;;;;;;5031030;28;20188;-74
2022/08/01 09:17:39;;;;;;;3.20;2.60;;;24.70;68.60;;;;;;5027380;28;20216;-75
2022/08/01 09:20:24;;;;;;;2.75;2.55;;;24.70;68.70;;;;;;4994077;28;20212;-74
2022/08/01 09:22:55;;;;;;;2.78;2.55;;;24.70;68.50;;;;;;5008783;28;20208;-74
2022/08/01 09:25:21;;;;;;;2.90;2.70;;;24.70;68.60;;;;;;5021911;28;20188;-76
2022/08/01 09:28:08;;;;;;;2.85;2.55;;;24.70;68.50;;;;;;5012971;28;20232;-74
2022/08/01 09:30:39;;;;;;;5.68;2.70;;;24.70;68.20;;;;;;5023565;28;20187;-73
2022/08/01 09:33:08;;;;;;;2.58;2.20;;;24.80;68.40;;;;;;4986683;28;20280;-74
2022/08/01 09:35:36;;;;;;;2.70;2.50;;;24.80;68.40;;;;;;5010046;28;20275;-74
2022/08/01 09:38:20;;;;;;;2.97;2.58;;;24.70;68.20;;;;;;4993474;28;20212;-75
2022/08/01 09:40:58;;;;;;;2.55;2.35;;;24.70;68.30;;;;;;4977777;28;20181;-75
2022/08/01 09:43:31;;;;;;;3.35;2.83;;;24.80;68.50;;;;;;5016065;28;20192;-74
2022/08/01 09:45:57;;;;;;;2.60;2.40;;;24.80;68.50;;;;;;5029593;28;20184;-73
2022/08/01 09:48:27;;;;;;;2.95;2.65;;;24.80;68.50;;;;;;5001007;28;20196;-75
2022/08/01 09:50:54;;;;;;;2.65;2.45;;;24.80;68.60;;;;;;5004035;28;20285;-74
2022/08/01 09:53:23;;;;;;;4.00;2.65;;;24.80;68.50;;;;;;5025935;28;20188;-74
2022/08/01 09:55:52;;;;;;;2.67;2.47;;;24.80;68.50;;;;;;4990927;28;20196;-74
2022/08/01 09:58:20;;;;;;;2.88;2.67;;;24.80;68.30;;;;;;5000387;28;20224;-75
2022/08/01 10:01:00;;;;;;;2.78;2.22;;;24.80;68.40;;;;;;5008846;28;20196;-75
2022/08/01 10:03:29;;;;;;;3.40;2.65;;;24.80;68.20;;;;;;4989083;28;20189;-74
2022/08/01 10:05:57;;;;;;;3.33;3.03;;;24.80;68.20;;;;;;5009316;28;20666;-75
2022/08/01 10:08:25;;;;;;;2.78;2.55;;;24.80;68.30;;;;;;5001795;28;20192;-75
2022/08/01 10:11:11;;;;;;;3.53;2.70;;;24.80;68.20;;;;;;4993954;28;20286;-74
2022/08/01 10:13:38;;;;;;;2.60;2.40;;;24.80;68.20;;;;;;5009349;28;20185;-74
2022/08/01 10:16:06;;;;;;;3.03;2.70;;;24.80;68.10;;;;;;5008989;28;20271;-74
2022/08/01 10:18:37;;;;;;;4.00;2.92;;;24.80;68.00;;;;;;5008651;28;20303;-74
2022/08/01 10:21:04;;;;;;;3.00;2.65;;;24.80;68.00;;;;;;5008526;28;20184;-75
2022/08/01 10:23:35;;;;;;;3.67;2.70;;;24.80;68.20;;;;;;5000801;28;20652;-74
2022/08/01 10:26:06;;;;;;;3.33;2.80;;;24.80;68.00;;;;;;4992324;28;20221;-75
2022/08/01 10:28:37;;;;;;;2.75;2.55;;;24.80;68.00;;;;;;4984023;28;20628;-75
2022/08/01 10:31:13;;;;;;;4.22;2.90;;;24.90;68.10;;;;;;5009501;28;20284;-75
2022/08/01 10:33:41;;;;;;;3.22;2.92;;;24.80;68.00;;;;;;5009569;28;20189;-75
2022/08/01 10:36:09;;;;;;;4.05;2.95;;;24.90;68.10;;;;;;5008841;28;20197;-75
2022/08/01 10:38:36;;;;;;;2.90;2.55;;;24.90;68.10;;;;;;5016166;28;20223;-75
2022/08/01 10:41:05;;;;;;;3.35;2.45;;;24.90;68.10;;;;;;5016915;28;20189;-75
2022/08/01 10:43:31;;;;;;;4.05;2.72;;;24.90;68.10;;;;;;5007723;28;20645;-74
2022/08/01 10:45:58;;;;;;;4.95;2.90;;;24.80;68.00;;;;;;5003238;28;20191;-73
2022/08/01 10:48:57;;;;;;;3.63;2.55;;;24.90;67.90;;;;;;5027225;28;20187;-73
2022/08/01 10:51:25;;;;;;;4.22;2.95;;;24.90;68.00;;;;;;4995631;28;20190;-74
2022/08/01 10:53:55;;;;;;;3.33;2.53;;;24.90;68.00;;;;;;4995493;28;20196;-75
2022/08/01 10:56:22;;;;;;;4.75;2.70;;;24.90;67.90;;;;;;4986259;28;20205;-74
2022/08/01 10:58:49;;;;;;;3.10;2.80;;;24.90;67.80;;;;;;4988858;28;20234;-74
2022/08/01 11:01:20;;;;;;;4.47;2.70;;;24.90;67.70;;;;;;5011726;28;20185;-74
2022/08/01 11:04:01;;;;;;;4.25;3.10;;;24.90;67.70;;;;;;4994118;28;20315;-74
2022/08/01 11:06:33;;;;;;;4.70;2.80;;;24.80;67.60;;;;;;4980783;28;20212;-73
2022/08/01 11:09:12;;;;;;;4.20;3.00;;;24.90;67.70;;;;;;4989325;28;20205;-74
2022/08/01 11:12:03;;;;;;;4.88;2.90;;;24.90;67.70;;;;;;4989125;28;20185;-74
2022/08/01 11:14:29;;;;;;;4.70;3.03;;;24.80;67.70;;;;;;4989102;28;20189;-74
2022/08/01 11:16:56;;;;;;;3.90;2.95;;;24.90;67.70;;;;;;5004737;28;20205;-74
2022/08/01 11:19:22;;;;;;;4.30;2.80;;;24.80;67.60;;;;;;5004997;28;20221;-73
2022/08/01 11:21:57;;;;;;;3.10;2.80;;;24.80;67.10;;;;;;5005157;28;20185;-73
2022/08/01 11:24:47;;;;;;;3.72;3.08;;;24.80;67.10;;;;;;4989056;28;20636;-73
2022/08/01 11:27:29;;;;;;;2.90;2.70;;;24.80;67.40;;;;;;4988362;28;20292;-74
2022/08/01 11:30:11;;;;;;;3.33;3.03;;;24.80;67.30;;;;;;4994533;28;20196;-74
2022/08/01 11:32:51;;;;;;;3.13;2.85;;;24.80;67.20;;;;;;5003574;28;20188;-73
2022/08/01 11:35:20;;;;;;;3.88;3.05;;;24.80;67.10;;;;;;5028074;28;20647;-73
2022/08/01 11:37:51;;;;;;;2.67;2.47;;;24.80;67.90;;;;;;5027640;28;20226;-73
2022/08/01 11:40:20;;;;;;;3.47;2.63;;;24.80;67.10;;;;;;5014856;28;20216;-74
2022/08/01 11:42:47;;;;;;;3.30;3.00;;;24.80;67.20;;;;;;4987904;28;20189;-73
2022/08/01 11:45:14;;;;;;;3.78;2.58;;;24.80;67.30;;;;;;4988489;28;20194;-74
2022/08/01 11:47:51;;;;;;;3.15;2.83;;;24.80;67.40;;;;;;4992191;28;20209;-74
2022/08/01 11:50:33;;;;;;;3.70;2.90;;;24.80;67.70;;;;;;5008333;28;20196;-74
2022/08/01 11:53:05;;;;;;;9.93;3.63;;;24.70;71.50;;;;;;4972485;28;20197;-74
2022/08/01 11:55:32;;;;;;;5.63;3.13;;;24.50;76.40;;;;;;5022498;28;20180;-73
2022/08/01 11:58:06;;;;;;;10.65;3.25;;;24.40;80.40;;;;;;5017491;28;20209;-74
2022/08/01 12:00:34;;;;;;;4.75;2.90;;;24.30;84.10;;;;;;4976163;28;20244;-74
2022/08/01 12:03:05;;;;;;;8.15;3.50;;;24.20;87.70;;;;;;5003588;28;20188;-74
2022/08/01 12:05:34;;;;;;;4.32;3.08;;;24.20;91.70;;;;;;4995277;28;20193;-73
2022/08/01 12:08:01;;;;;;;4.45;3.03;;;24.10;93.90;;;;;;5011554;28;20213;-74
2022/08/01 12:10:35;;;;;;;3.55;3.25;;;24.10;95.90;;;;;;5011514;28;20228;-74
2022/08/01 12:13:05;;;;;;;5.63;3.53;;;24.10;97.00;;;;;;5011764;28;20267;-73
2022/08/01 12:15:37;;;;;;;4.78;3.35;;;24.10;98.50;;;;;;5010944;28;20695;-74
2022/08/01 12:18:06;;;;;;;4.13;2.63;;;24.00;97.30;;;;;;5011263;28;20315;-74
2022/08/01 12:20:38;;;;;;;4.65;3.28;;;24.00;98.00;;;;;;5009111;28;20696;-74
2022/08/01 12:23:15;;;;;;;3.38;3.05;;;23.90;97.60;;;;;;4992131;28;20185;-74
2022/08/01 12:25:47;;;;;;;3.47;3.15;;;23.90;98.00;;;;;;4992187;28;20268;-74
2022/08/01 12:28:13;;;;;;;5.00;3.15;;;24.00;99.90;;;;;;4991213;28;20221;-74
2022/08/01 12:30:40;;;;;;;3.10;2.80;;;23.90;99.60;;;;;;4992513;28;20191;-73
2022/08/01 12:33:09;;;;;;;5.13;3.30;;;24.00;99.50;;;;;;5023816;28;20185;-73
2022/08/01 12:35:38;;;;;;;3.40;3.10;;;24.00;99.80;;;;;;5030667;28;20172;-73
2022/08/01 12:38:18;;;;;;;3.20;2.70;;;24.00;99.90;;;;;;5030072;28;20694;-74
2022/08/01 12:40:47;;;;;;;3.85;2.97;;;24.00;99.90;;;;;;5014223;28;20188;-73
2022/08/01 12:43:26;;;;;;;3.13;2.90;;;24.00;99.90;;;;;;5030932;28;20187;-74
2022/08/01 12:45:54;;;;;;;3.35;3.08;;;24.10;99.90;;;;;;5030735;28;20286;-74
2022/08/01 12:48:20;;;;;;;4.00;2.92;;;24.20;99.90;;;;;;5013808;28;20231;-74
2022/08/01 12:50:48;;;;;;;2.88;2.67;;;24.30;99.20;;;;;;5030489;28;20175;-74
2022/08/01 12:53:15;;;;;;;2.92;2.70;;;24.30;97.80;;;;;;5002293;28;20285;-74
2022/08/01 12:55:59;;;;;;;4.32;2.58;;;24.30;95.60;;;;;;4994156;28;20185;-74
2022/08/01 12:58:32;;;;;;;3.17;2.95;;;24.30;94.70;;;;;;4993471;28;20205;-74
2022/08/01 13:01:12;;;;;;;3.20;2.80;;;24.20;92.60;;;;;;5013675;28;20180;-74